Main page
METAR-TAF:

METAR-TAF

Airports :

Donegal, Ireland

Donegal Airport

latitude: 55-02-39N, longitude: 8-20-28W, elevation: 9 m

Current weather observation

The report was made 8 hours and 17 minutes ago, at 18:30 UTC
Wind 4 kt from the Southwest
Temperature 11°C
Humidity 76%
Pressure 1009 hPa
Visibility 10 km or more
light rain

METAR: EIDL 211830Z 23004KT 9999 -RA NSC 11/07 Q1009

Time: 03:47 (02:47 UTC)

Forecast

The report was made 9 hours and 47 minutes ago, at 17:00 UTC
Forecast valid from 21 at 18 UTC to 21 at 21 UTC
Wind 10 kt from the Southwest
Visibility 10 km or more
Scattered clouds at a height of 3000 ft

TAF: EIDL 211700Z 2118/2121 22010KT 9999 SCT030

Weather observations and forecasts of more than 4000 airports (METAR and TAF reports).

The available stations are represented by yellow and red dots on the map.

Hover mouse over dot to see the name of the station.

Then click to see weather observations and forecasts.

To change the map : click on the green buttons with a black cross to zoom in, on the green button with a dash to zoom out, or on the green arrows for adjacent maps.


METAR-TAF: